createdAt,value
2023-05-19T00:10:59.369Z,67.5
2023-05-19T00:20:59.342Z,67.1
2023-05-19T00:30:59.341Z,66.9
2023-05-19T00:40:59.355Z,67.1
2023-05-19T00:50:59.356Z,68
2023-05-19T00:55:59.355Z,68
2023-05-19T01:10:59.360Z,67.6
2023-05-19T01:20:59.347Z,67.2
2023-05-19T01:25:59.351Z,67.3
2023-05-19T01:35:59.351Z,68.1
2023-05-19T01:40:59.350Z,67.9
2023-05-19T01:50:59.363Z,67.4
2023-05-19T02:00:59.430Z,67.1
2023-05-19T02:15:59.388Z,67.6
2023-05-19T02:20:59.390Z,67.7
2023-05-19T02:30:59.371Z,67.7
2023-05-19T02:45:59.391Z,67.5
2023-05-19T02:55:59.358Z,67.7
2023-05-19T03:00:59.359Z,68.1
2023-05-19T03:05:59.359Z,68.2
2023-05-19T03:10:59.367Z,68.2
2023-05-19T03:15:59.420Z,68
2023-05-19T03:20:59.392Z,67.9
2023-05-19T03:30:59.376Z,67.4
2023-05-19T03:45:59.460Z,67.3
2023-05-19T03:55:59.442Z,67.5
2023-05-19T04:05:59.409Z,67.2
2023-05-19T04:10:59.404Z,66.9
2023-05-19T04:20:59.400Z,66.9
2023-05-19T04:25:59.407Z,66.8
2023-05-19T04:40:59.407Z,67.3
2023-05-19T04:45:59.410Z,67.2
2023-05-19T04:55:59.401Z,66.9
2023-05-19T05:00:59.410Z,67.4
2023-05-19T05:10:59.417Z,66.9
2023-05-19T05:15:59.432Z,66.9
2023-05-19T05:20:59.651Z,67.2
2023-05-19T05:30:59.421Z,67.7
2023-05-19T05:40:59.390Z,67.4
2023-05-19T05:45:59.445Z,67.6
2023-05-19T05:55:59.426Z,67.2
2023-05-19T06:00:59.418Z,67.1
2023-05-19T06:10:59.409Z,67.6
2023-05-19T06:16:01.840Z,67.8
2023-05-19T06:25:59.440Z,67.8
2023-05-19T06:35:59.421Z,67.6
2023-05-19T06:45:59.430Z,67.2
2023-05-19T06:50:59.428Z,67.1
2023-05-19T06:56:00.377Z,67.1
2023-05-19T07:05:59.470Z,67.8
2023-05-19T07:10:59.435Z,68.2
2023-05-19T07:15:59.476Z,67.7
2023-05-19T07:25:59.432Z,67.7
2023-05-19T07:30:59.445Z,67.6
2023-05-19T07:40:59.443Z,67.9
2023-05-19T07:45:59.464Z,67.8
2023-05-19T07:50:59.440Z,67.8
2023-05-19T08:00:59.790Z,67.9
2023-05-19T08:15:59.580Z,67.7
2023-05-19T08:25:59.424Z,67
2023-05-19T08:30:59.476Z,67.5
2023-05-19T08:40:59.541Z,67.6
2023-05-19T08:45:59.432Z,67.6
2023-05-19T08:55:59.442Z,67.5
2023-05-19T09:10:59.429Z,67.1
2023-05-19T09:15:59.438Z,66.9
2023-05-19T09:25:59.425Z,66.9
2023-05-19T09:30:59.430Z,67.2
2023-05-19T09:35:59.440Z,66.9
2023-05-19T09:40:59.446Z,66.7
2023-05-19T09:55:59.444Z,66.5
2023-05-19T10:16:00.243Z,67.5
2023-05-19T10:25:59.440Z,66.8
2023-05-19T10:30:59.461Z,66.3
2023-05-19T10:40:59.451Z,66.5
2023-05-19T10:50:59.431Z,67.1
2023-05-19T10:55:59.463Z,67.3
2023-05-19T11:05:59.434Z,67.4
2023-05-19T11:10:59.445Z,67
2023-05-19T11:15:59.444Z,67
2023-05-19T11:25:59.437Z,67.1
2023-05-19T11:30:59.441Z,67
2023-05-19T11:45:59.471Z,67
2023-05-19T11:55:59.436Z,67
2023-05-19T12:00:59.441Z,66.9
2023-05-19T12:05:59.466Z,66.7
2023-05-19T12:10:59.455Z,66.7
2023-05-19T12:20:59.430Z,66.5
2023-05-19T12:25:59.475Z,66.5
2023-05-19T12:35:59.434Z,66.5
2023-05-19T12:40:59.448Z,66.4
2023-05-19T12:55:59.438Z,66.3
2023-05-19T13:00:59.547Z,66.2
2023-05-19T13:10:59.446Z,66
2023-05-19T13:15:59.467Z,65.9
2023-05-19T13:25:59.456Z,65.4
2023-05-19T13:40:59.473Z,65.7
2023-05-19T13:50:59.462Z,65.8
2023-05-19T14:00:59.482Z,66
2023-05-19T14:10:59.531Z,66.1
2023-05-19T14:20:59.486Z,66.2
2023-05-19T14:30:59.460Z,66.1
2023-05-19T14:40:59.495Z,65.9
2023-05-19T14:45:59.493Z,65.7
2023-05-19T14:50:59.502Z,65.6
2023-05-19T15:00:59.566Z,65.5
2023-05-19T15:16:15.599Z,66
2023-05-19T15:20:59.479Z,66.1
2023-05-19T15:30:59.515Z,66.1
2023-05-19T15:40:59.492Z,65.8
2023-05-19T15:50:59.524Z,66.4
2023-05-19T15:55:59.486Z,65.7
2023-05-19T16:10:59.574Z,66.1
2023-05-19T16:15:59.531Z,66.3
2023-05-19T16:25:59.502Z,65.9
2023-05-19T16:40:59.496Z,67
2023-05-19T16:45:59.600Z,67.1
2023-05-19T16:50:59.535Z,67
2023-05-19T17:00:59.524Z,66.5
2023-05-19T17:15:59.484Z,66.3
2023-05-19T17:25:59.511Z,67.2
2023-05-19T17:30:59.524Z,67.4
2023-05-19T17:40:59.501Z,67.1
2023-05-19T17:50:59.523Z,66.8
2023-05-19T18:00:59.497Z,67.1
2023-05-19T18:05:59.525Z,66.8
2023-05-19T18:10:59.521Z,67.4
2023-05-19T18:20:59.506Z,67.5
2023-05-19T18:25:59.541Z,67.6
2023-05-19T18:35:59.530Z,67.5
2023-05-19T18:45:59.567Z,67.5
2023-05-19T18:55:59.530Z,67.5
2023-05-19T19:05:59.523Z,67.4
2023-05-19T19:10:59.528Z,67.6
2023-05-19T19:20:59.551Z,67.8
2023-05-19T19:25:59.530Z,67.7
2023-05-19T19:30:59.546Z,67.8
2023-05-19T19:45:59.878Z,67.7
2023-05-19T19:50:59.542Z,67.7
2023-05-19T19:55:59.551Z,67.8
2023-05-19T20:05:59.529Z,67.9
2023-05-19T20:10:59.552Z,67.8
2023-05-19T20:15:59.574Z,67.8
2023-05-19T20:26:11.760Z,67.9
2023-05-19T20:30:59.545Z,67.9
2023-05-19T20:40:59.570Z,67.9
2023-05-19T20:50:59.559Z,68
2023-05-19T20:55:59.585Z,67.9
2023-05-19T21:10:59.557Z,67.3
2023-05-19T21:15:59.592Z,67.2
2023-05-19T21:25:59.638Z,67.9
2023-05-19T21:35:59.565Z,68
2023-05-19T21:45:59.609Z,68.6
2023-05-19T21:55:59.559Z,67.5
2023-05-19T22:00:59.583Z,67.5
2023-05-19T22:10:59.579Z,67.6
2023-05-19T22:20:59.582Z,68.1
2023-05-19T22:25:59.606Z,68.2
2023-05-19T22:35:59.594Z,68
2023-05-19T22:40:59.596Z,67.7
2023-05-19T22:50:59.595Z,67.6
2023-05-19T22:55:59.582Z,67.5
2023-05-19T23:00:59.650Z,68.5
2023-05-19T23:10:59.600Z,68.3
2023-05-19T23:20:59.627Z,68.3
2023-05-19T23:30:59.623Z,67.9
2023-05-19T23:40:59.629Z,67.7
2023-05-19T23:50:59.616Z,68.2
